createdAt,value
2019-02-17T00:00:41.914Z,10.94
2019-02-17T00:01:41.844Z,11.07
2019-02-17T00:02:41.760Z,11.06
2019-02-17T00:03:41.688Z,11.07
2019-02-17T00:04:41.624Z,11.18
2019-02-17T00:05:41.563Z,11.18
2019-02-17T00:06:41.469Z,11.17
2019-02-17T00:07:41.384Z,11.07
2019-02-17T00:08:41.314Z,11.00
2019-02-17T00:09:41.242Z,10.97
2019-02-17T00:10:41.179Z,10.97
2019-02-17T00:11:41.104Z,10.99
2019-02-17T00:12:41.026Z,10.99
2019-02-17T00:13:40.947Z,10.94
2019-02-17T00:14:40.885Z,10.91
2019-02-17T00:15:40.845Z,10.94
2019-02-17T00:16:40.739Z,10.99
2019-02-17T00:17:40.665Z,10.94
2019-02-17T00:18:40.576Z,11.06
2019-02-17T00:19:40.502Z,11.04
2019-02-17T00:20:40.442Z,10.99
2019-02-17T00:21:40.356Z,10.96
2019-02-17T00:22:40.299Z,10.94
2019-02-17T00:23:40.226Z,10.86
2019-02-17T00:24:40.154Z,10.92
2019-02-17T00:25:40.074Z,10.85
2019-02-17T00:26:39.988Z,10.79
2019-02-17T00:27:39.918Z,10.70
2019-02-17T00:28:39.863Z,10.64
2019-02-17T00:29:39.785Z,10.67
2019-02-17T00:30:39.702Z,10.67
2019-02-17T00:31:39.620Z,10.84
2019-02-17T00:32:39.550Z,10.70
2019-02-17T00:33:39.473Z,10.66
2019-02-17T00:34:39.421Z,10.70
2019-02-17T00:35:39.339Z,10.71
2019-02-17T00:36:39.264Z,10.70
2019-02-17T00:37:39.193Z,10.74
2019-02-17T00:38:39.105Z,10.70
2019-02-17T00:39:39.050Z,10.70
2019-02-17T00:40:38.956Z,10.81
2019-02-17T00:41:38.881Z,10.73
2019-02-17T00:42:38.819Z,10.81
2019-02-17T00:43:38.751Z,10.76
2019-02-17T00:44:38.659Z,10.70
2019-02-17T00:45:38.584Z,10.66
2019-02-17T00:46:38.523Z,10.63
2019-02-17T00:47:38.453Z,10.47
2019-02-17T00:48:38.380Z,10.52
2019-02-17T00:49:38.308Z,10.36
2019-02-17T00:50:38.221Z,10.59
2019-02-17T00:51:38.142Z,10.40
2019-02-17T00:52:38.069Z,10.48
2019-02-17T00:53:37.999Z,10.52
2019-02-17T00:54:37.933Z,10.59
2019-02-17T00:55:37.863Z,10.61
2019-02-17T00:56:37.783Z,10.67
2019-02-17T00:57:37.711Z,10.66
2019-02-17T00:58:37.626Z,10.56
2019-02-17T00:59:37.548Z,10.36
2019-02-17T01:00:37.487Z,10.34
2019-02-17T01:01:37.424Z,10.14
2019-02-17T01:02:37.362Z,10.14
2019-02-17T01:03:37.258Z,10.05
2019-02-17T01:04:37.186Z,10.02
2019-02-17T01:05:37.108Z,9.93
2019-02-17T01:06:37.049Z,9.90
2019-02-17T01:07:36.974Z,9.86
2019-02-17T01:08:36.886Z,9.97
2019-02-17T01:09:36.814Z,9.91
2019-02-17T01:10:36.754Z,9.87
2019-02-17T01:11:36.675Z,9.90
2019-02-17T01:12:36.599Z,9.91
2019-02-17T01:13:36.526Z,9.83
2019-02-17T01:14:36.440Z,9.86
2019-02-17T01:15:36.366Z,9.84
2019-02-17T01:16:36.315Z,9.86
2019-02-17T01:17:36.234Z,9.83
2019-02-17T01:18:36.137Z,9.79
2019-02-17T01:19:36.067Z,9.71
2019-02-17T01:20:35.995Z,9.66
2019-02-17T01:21:35.919Z,9.60
2019-02-17T01:22:35.851Z,9.60
2019-02-17T01:23:35.778Z,9.58
2019-02-17T01:24:35.704Z,9.72
2019-02-17T01:25:35.629Z,9.66
2019-02-17T01:26:35.553Z,9.74
2019-02-17T01:27:35.471Z,9.76
2019-02-17T01:28:35.391Z,9.81
2019-02-17T01:29:35.319Z,9.83
2019-02-17T01:30:35.260Z,9.79
2019-02-17T01:31:35.182Z,9.90
2019-02-17T01:32:35.102Z,9.90
2019-02-17T01:33:35.021Z,9.89
2019-02-17T01:34:34.959Z,9.94
2019-02-17T01:35:34.894Z,9.96
2019-02-17T01:36:34.814Z,9.97
2019-02-17T01:37:34.737Z,10.08
2019-02-17T01:38:34.651Z,10.11
2019-02-17T01:39:34.575Z,10.12
2019-02-17T01:40:34.508Z,10.17
2019-02-17T01:41:34.455Z,10.17
2019-02-17T01:42:34.354Z,10.27
2019-02-17T01:43:34.281Z,10.29
2019-02-17T01:44:34.206Z,10.30
2019-02-17T01:45:34.132Z,10.20
2019-02-17T01:46:34.064Z,10.27
2019-02-17T01:47:33.997Z,10.27
2019-02-17T01:48:33.906Z,10.18
2019-02-17T01:49:33.830Z,10.32
2019-02-17T01:50:33.772Z,10.32
2019-02-17T01:51:33.694Z,10.27
2019-02-17T01:52:33.617Z,10.23
2019-02-17T01:53:33.546Z,10.32
2019-02-17T01:54:33.458Z,10.23
2019-02-17T01:55:33.382Z,10.17
2019-02-17T01:56:33.308Z,10.18
2019-02-17T01:57:33.236Z,10.20
2019-02-17T01:58:33.176Z,10.17
2019-02-17T01:59:33.105Z,10.12
2019-02-17T02:00:33.029Z,10.12
2019-02-17T02:01:32.953Z,10.11
2019-02-17T02:02:32.860Z,10.12
2019-02-17T02:03:32.792Z,10.09
2019-02-17T02:04:32.726Z,10.02
2019-02-17T02:05:32.652Z,10.02
2019-02-17T02:06:32.565Z,9.99
2019-02-17T02:07:32.497Z,10.07
2019-02-17T02:08:32.420Z,10.02
2019-02-17T02:09:32.341Z,9.87
2019-02-17T02:10:32.281Z,9.89
2019-02-17T02:11:32.208Z,9.68
2019-02-17T02:12:32.118Z,9.74
2019-02-17T02:13:32.045Z,9.58
2019-02-17T02:14:31.979Z,9.53
2019-02-17T02:15:31.908Z,9.56
2019-02-17T02:16:31.828Z,9.50
2019-02-17T02:17:31.758Z,9.48
2019-02-17T02:18:31.669Z,9.43
2019-02-17T02:19:31.591Z,9.35
2019-02-17T02:20:31.531Z,9.28
2019-02-17T02:21:31.456Z,9.36
2019-02-17T02:22:31.369Z,9.39
2019-02-17T02:23:31.297Z,9.36
2019-02-17T02:24:31.219Z,9.38
2019-02-17T02:25:31.151Z,9.51
2019-02-17T02:26:31.080Z,9.48
2019-02-17T02:27:31.012Z,9.58
2019-02-17T02:28:30.932Z,9.71
2019-02-17T02:29:40.475Z,9.61
2019-02-17T02:30:30.779Z,9.60
2019-02-17T02:31:30.694Z,9.51
2019-02-17T02:32:30.621Z,9.35
2019-02-17T02:33:30.556Z,9.40
2019-02-17T02:34:30.482Z,9.42
2019-02-17T02:35:30.416Z,9.39
2019-02-17T02:36:30.321Z,9.32
2019-02-17T02:37:30.248Z,9.31
2019-02-17T02:38:30.188Z,9.33
2019-02-17T02:39:30.112Z,9.39
2019-02-17T02:40:30.037Z,9.42
2019-02-17T02:41:34.722Z,9.39
2019-02-17T02:42:29.872Z,9.39
2019-02-17T02:43:29.797Z,9.48
2019-02-17T02:44:29.724Z,9.47
2019-02-17T02:45:29.651Z,9.56
2019-02-17T02:46:29.633Z,9.58
2019-02-17T02:47:29.514Z,9.57
2019-02-17T02:48:29.437Z,9.56
2019-02-17T02:49:29.371Z,9.74
2019-02-17T02:50:29.272Z,9.71
2019-02-17T02:51:29.201Z,9.68
2019-02-17T02:52:29.142Z,9.69
2019-02-17T02:53:29.060Z,9.68
2019-02-17T02:54:28.976Z,9.78
2019-02-17T02:55:28.898Z,9.84
2019-02-17T02:56:28.828Z,9.74
2019-02-17T02:57:28.756Z,9.83
2019-02-17T02:58:28.689Z,9.69
2019-02-17T02:59:28.610Z,9.76
2019-02-17T03:00:28.540Z,9.64
2019-02-17T03:01:28.466Z,9.74
2019-02-17T03:02:28.377Z,9.68
2019-02-17T03:03:28.300Z,9.61
2019-02-17T03:04:28.229Z,9.54
2019-02-17T03:05:28.151Z,9.50
2019-02-17T03:06:28.090Z,9.46
2019-02-17T03:07:28.013Z,9.42
2019-02-17T03:08:27.927Z,9.42
2019-02-17T03:09:27.860Z,9.39
2019-02-17T03:10:27.791Z,9.36
2019-02-17T03:11:27.847Z,9.38
2019-02-17T03:12:27.639Z,9.32
2019-02-17T03:13:27.578Z,9.39
2019-02-17T03:14:27.478Z,9.42
2019-02-17T03:15:27.409Z,9.36
2019-02-17T03:16:27.339Z,9.36
2019-02-17T03:17:27.283Z,9.32
2019-02-17T03:18:27.175Z,9.31
2019-02-17T03:19:27.107Z,9.26
2019-02-17T03:20:27.028Z,9.24
2019-02-17T03:21:26.963Z,9.23
2019-02-17T03:22:26.888Z,9.26
2019-02-17T03:23:26.814Z,9.11
2019-02-17T03:24:26.726Z,9.11
2019-02-17T03:25:26.662Z,9.10
2019-02-17T03:26:26.621Z,9.15
2019-02-17T03:27:26.537Z,9.14
2019-02-17T03:28:26.441Z,9.13
2019-02-17T03:29:26.363Z,9.11
2019-02-17T03:30:26.277Z,9.20
2019-02-17T03:31:26.203Z,9.21
2019-02-17T03:32:26.131Z,9.28
2019-02-17T03:33:26.112Z,9.26
2019-02-17T03:34:25.989Z,9.35
2019-02-17T03:35:25.930Z,9.51
2019-02-17T03:36:25.850Z,9.47
2019-02-17T03:37:25.769Z,9.56
2019-02-17T03:38:25.676Z,9.39
2019-02-17T03:39:25.600Z,9.29
2019-02-17T03:40:25.547Z,9.11
2019-02-17T03:41:25.465Z,9.01
2019-02-17T03:42:25.382Z,8.95
2019-02-17T03:43:25.316Z,8.74
2019-02-17T03:44:25.224Z,8.70
2019-02-17T03:45:25.156Z,8.59
2019-02-17T03:46:25.112Z,8.50
2019-02-17T03:47:25.012Z,8.43
2019-02-17T03:48:24.937Z,8.44
2019-02-17T03:49:24.860Z,8.45
2019-02-17T03:50:24.778Z,8.47
2019-02-17T03:51:24.707Z,8.48
2019-02-17T03:52:24.627Z,8.44
2019-02-17T03:53:24.549Z,8.55
2019-02-17T03:54:24.483Z,8.58
2019-02-17T03:55:24.412Z,8.56
2019-02-17T03:56:24.330Z,8.56
2019-02-17T03:57:24.247Z,8.61
2019-02-17T03:58:24.190Z,8.58
2019-02-17T03:59:24.104Z,8.55
2019-02-17T04:00:24.032Z,8.62
2019-02-17T04:01:23.970Z,8.41
2019-02-17T04:02:23.862Z,8.41
2019-02-17T04:03:23.790Z,8.30
2019-02-17T04:04:23.714Z,8.23
2019-02-17T04:05:23.640Z,8.22
2019-02-17T04:06:23.574Z,8.22
2019-02-17T04:07:23.502Z,8.19
2019-02-17T04:08:23.424Z,8.22
2019-02-17T04:09:23.350Z,8.19
2019-02-17T04:10:23.323Z,8.22
2019-02-17T04:11:23.179Z,8.15
2019-02-17T04:12:23.114Z,8.30
2019-02-17T04:13:23.044Z,8.43
2019-02-17T04:14:22.955Z,8.37
2019-02-17T04:15:22.877Z,8.47
2019-02-17T04:16:22.814Z,8.58
2019-02-17T04:17:22.735Z,8.65
2019-02-17T04:18:22.663Z,8.66
2019-02-17T04:19:22.590Z,8.53
2019-02-17T04:20:22.495Z,8.62
2019-02-17T04:21:22.427Z,8.61
2019-02-17T04:22:22.362Z,8.74
2019-02-17T04:23:30.793Z,8.70
2019-02-17T04:24:22.209Z,8.61
2019-02-17T04:25:22.130Z,8.58
2019-02-17T04:26:22.059Z,8.47
2019-02-17T04:27:21.967Z,8.59
2019-02-17T04:28:21.901Z,8.52
2019-02-17T04:29:21.833Z,8.53
2019-02-17T04:30:29.350Z,8.52
2019-02-17T04:31:21.666Z,8.52
2019-02-17T04:32:21.589Z,8.50
2019-02-17T04:33:21.516Z,8.38
2019-02-17T04:34:21.444Z,8.45
2019-02-17T04:35:21.374Z,8.40
2019-02-17T04:36:21.298Z,8.28
2019-02-17T04:37:21.219Z,8.45
2019-02-17T04:38:21.137Z,8.45
2019-02-17T04:39:21.059Z,8.45
2019-02-17T04:40:20.987Z,8.44
2019-02-17T04:41:20.915Z,8.48
2019-02-17T04:42:20.844Z,8.38
2019-02-17T04:43:20.769Z,8.38
2019-02-17T04:44:20.681Z,8.30
2019-02-17T04:45:20.605Z,8.28
2019-02-17T04:46:20.539Z,8.33
2019-02-17T04:47:20.466Z,8.26
2019-02-17T04:48:20.392Z,8.26
2019-02-17T04:49:20.319Z,8.20
2019-02-17T04:50:20.226Z,8.22
2019-02-17T04:51:20.145Z,8.19
2019-02-17T04:52:20.075Z,8.26
2019-02-17T04:53:20.001Z,8.36
2019-02-17T04:54:19.936Z,8.29
2019-02-17T04:55:19.860Z,8.28
2019-02-17T04:56:19.781Z,8.40
2019-02-17T04:57:19.730Z,8.44
2019-02-17T04:58:19.619Z,8.38
2019-02-17T04:59:19.544Z,8.30
2019-02-17T05:00:19.483Z,8.26
2019-02-17T05:01:19.407Z,8.37
2019-02-17T05:02:19.317Z,8.29
2019-02-17T05:03:19.239Z,8.23
2019-02-17T05:04:19.168Z,8.25
2019-02-17T05:05:19.091Z,8.37
2019-02-17T05:06:19.027Z,8.22
2019-02-17T05:07:18.948Z,8.30
2019-02-17T05:08:18.873Z,8.25
2019-02-17T05:09:18.796Z,8.26
2019-02-17T05:10:18.711Z,8.37
2019-02-17T05:11:18.641Z,8.33
2019-02-17T05:12:18.557Z,8.20
2019-02-17T05:13:18.485Z,8.19
2019-02-17T05:14:18.424Z,8.34
2019-02-17T05:15:18.345Z,8.44
2019-02-17T05:16:18.258Z,8.43
2019-02-17T05:17:18.187Z,8.47
2019-02-17T05:18:18.119Z,8.47
2019-02-17T05:19:18.039Z,8.58
2019-02-17T05:20:17.961Z,8.56
2019-02-17T05:21:17.892Z,8.56
2019-02-17T05:22:17.831Z,8.56
2019-02-17T05:23:17.728Z,8.50
2019-02-17T05:24:17.660Z,8.52
2019-02-17T05:25:17.589Z,8.55
2019-02-17T05:26:17.495Z,8.45
2019-02-17T05:27:17.428Z,8.47
2019-02-17T05:28:17.350Z,8.43
2019-02-17T05:29:17.282Z,8.37
2019-02-17T05:30:17.217Z,8.25
2019-02-17T05:31:17.142Z,8.25
2019-02-17T05:32:17.050Z,8.15
2019-02-17T05:33:16.984Z,8.12
2019-02-17T05:34:16.906Z,8.05
2019-02-17T05:35:16.841Z,7.93
2019-02-17T05:36:16.759Z,7.72
2019-02-17T05:37:16.677Z,7.68
2019-02-17T05:38:16.590Z,7.58
2019-02-17T05:39:16.514Z,7.46
2019-02-17T05:40:16.439Z,7.43
2019-02-17T05:41:16.365Z,7.42
2019-02-17T05:42:16.296Z,7.55
2019-02-17T05:43:16.223Z,7.45
2019-02-17T05:44:16.152Z,7.49
2019-02-17T05:45:16.074Z,7.46
2019-02-17T05:46:15.982Z,7.35
2019-02-17T05:47:15.907Z,7.32
2019-02-17T05:48:15.843Z,7.45
2019-02-17T05:49:15.805Z,7.50
2019-02-17T05:50:15.685Z,7.37
2019-02-17T05:51:15.604Z,7.37
2019-02-17T05:52:15.526Z,7.37
2019-02-17T05:53:15.465Z,7.30
2019-02-17T05:54:15.388Z,7.24
2019-02-17T05:55:15.311Z,7.27
2019-02-17T05:56:15.222Z,7.27
2019-02-17T05:57:15.150Z,7.35
2019-02-17T05:58:15.087Z,7.35
2019-02-17T05:59:15.012Z,7.35
2019-02-17T06:00:14.927Z,7.27
2019-02-17T06:01:14.852Z,7.39
2019-02-17T06:02:14.765Z,7.32
2019-02-17T06:03:14.684Z,7.46
2019-02-17T06:04:14.659Z,7.48
2019-02-17T06:05:14.547Z,7.50
2019-02-17T06:06:15.093Z,7.48
2019-02-17T06:07:14.384Z,7.60
2019-02-17T06:08:14.312Z,7.49
2019-02-17T06:09:14.230Z,7.46
2019-02-17T06:10:14.162Z,7.39
2019-02-17T06:11:14.096Z,7.31
2019-02-17T06:12:14.013Z,7.23
2019-02-17T06:13:13.953Z,7.09
2019-02-17T06:14:13.856Z,6.98
2019-02-17T06:15:13.768Z,7.02
2019-02-17T06:16:13.702Z,6.99
2019-02-17T06:17:13.630Z,7.10
2019-02-17T06:18:13.574Z,6.99
2019-02-17T06:19:13.491Z,6.98
2019-02-17T06:20:13.393Z,6.98
2019-02-17T06:21:13.314Z,7.12
2019-02-17T06:22:13.245Z,7.13
2019-02-17T06:23:13.173Z,7.13
2019-02-17T06:24:13.095Z,6.97
2019-02-17T06:25:13.177Z,6.99
2019-02-17T06:26:12.926Z,6.91
2019-02-17T06:27:12.863Z,6.94
2019-02-17T06:28:12.787Z,7.02
2019-02-17T06:29:12.710Z,6.94
2019-02-17T06:30:12.627Z,6.95
2019-02-17T06:31:14.686Z,6.87
2019-02-17T06:32:12.471Z,6.85
2019-02-17T06:33:12.396Z,6.73
2019-02-17T06:34:12.365Z,6.81
2019-02-17T06:35:12.250Z,6.77
2019-02-17T06:36:12.168Z,6.73
2019-02-17T06:37:12.086Z,6.71
2019-02-17T06:38:12.024Z,6.73
2019-02-17T06:39:11.945Z,6.61
2019-02-17T06:40:11.880Z,6.71
2019-02-17T06:41:11.787Z,6.76
2019-02-17T06:42:11.703Z,6.79
2019-02-17T06:43:11.624Z,6.79
2019-02-17T06:44:11.551Z,6.84
2019-02-17T06:45:11.481Z,6.77
2019-02-17T06:46:11.410Z,6.80
2019-02-17T06:47:11.332Z,6.70
2019-02-17T06:48:11.255Z,6.79
2019-02-17T06:49:11.179Z,6.67
2019-02-17T06:50:11.092Z,6.76
2019-02-17T06:51:11.010Z,6.79
2019-02-17T06:52:10.951Z,6.67
2019-02-17T06:53:10.867Z,6.61
2019-02-17T06:54:10.778Z,6.62
2019-02-17T06:55:10.704Z,6.66
2019-02-17T06:56:10.627Z,6.44
2019-02-17T06:57:10.551Z,6.49
2019-02-17T06:58:10.485Z,6.43
2019-02-17T06:59:10.409Z,6.58
2019-02-17T07:00:10.335Z,6.44
2019-02-17T07:01:10.252Z,6.38
2019-02-17T07:02:10.164Z,6.41
2019-02-17T07:03:10.085Z,6.41
2019-02-17T07:04:10.028Z,6.38
2019-02-17T07:05:09.952Z,6.43
2019-02-17T07:06:09.880Z,6.46
2019-02-17T07:07:09.798Z,6.48
2019-02-17T07:08:09.807Z,6.43
2019-02-17T07:09:09.628Z,6.28
2019-02-17T07:10:09.557Z,6.22
2019-02-17T07:11:09.485Z,6.27
2019-02-17T07:12:09.416Z,6.41
2019-02-17T07:13:09.326Z,6.44
2019-02-17T07:14:09.243Z,6.54
2019-02-17T07:15:09.164Z,6.62
2019-02-17T07:16:09.097Z,6.69
2019-02-17T07:17:09.009Z,6.74
2019-02-17T07:18:08.951Z,6.91
2019-02-17T07:19:08.872Z,6.85
2019-02-17T07:20:09.782Z,6.99
2019-02-17T07:21:08.729Z,7.12
2019-02-17T07:22:08.625Z,7.09
2019-02-17T07:23:08.546Z,7.17
2019-02-17T07:24:08.535Z,7.25
2019-02-17T07:25:08.406Z,7.27
2019-02-17T07:26:08.321Z,7.27
2019-02-17T07:27:08.241Z,7.45
2019-02-17T07:28:08.166Z,7.49
2019-02-17T07:29:08.091Z,7.57
2019-02-17T07:30:08.027Z,7.60
2019-02-17T07:31:07.953Z,7.69
2019-02-17T07:32:07.875Z,7.64
2019-02-17T07:33:07.789Z,7.72
2019-02-17T07:34:07.719Z,7.71
2019-02-17T07:35:07.646Z,7.60
2019-02-17T07:36:07.572Z,7.35
2019-02-17T07:37:07.518Z,7.27
2019-02-17T07:38:07.403Z,7.30
2019-02-17T07:39:07.328Z,7.09
2019-02-17T07:40:07.276Z,7.03
2019-02-17T07:41:07.184Z,6.99
2019-02-17T07:42:09.476Z,7.03
2019-02-17T07:43:07.025Z,7.03
2019-02-17T07:44:06.949Z,7.02
2019-02-17T07:45:06.869Z,6.99
2019-02-17T07:46:06.805Z,6.97
2019-02-17T07:47:06.732Z,6.98
2019-02-17T07:48:06.656Z,7.06
2019-02-17T07:49:06.601Z,6.95
2019-02-17T07:50:06.489Z,7.06
2019-02-17T07:51:06.411Z,7.27
2019-02-17T07:52:06.337Z,7.27
2019-02-17T07:53:06.275Z,7.46
2019-02-17T07:54:06.197Z,7.68
2019-02-17T07:55:06.123Z,7.72
2019-02-17T07:56:06.034Z,7.92
2019-02-17T07:57:05.957Z,7.93
2019-02-17T07:58:05.906Z,8.12
2019-02-17T07:59:05.823Z,8.18
2019-02-17T08:00:05.746Z,8.25
2019-02-17T08:01:07.277Z,8.33
2019-02-17T08:02:05.587Z,8.43
2019-02-17T08:03:05.508Z,8.47
2019-02-17T08:04:05.430Z,8.52
2019-02-17T08:05:05.360Z,8.53
2019-02-17T08:06:05.296Z,8.53
2019-02-17T08:07:05.222Z,8.58
2019-02-17T08:08:05.140Z,8.66
2019-02-17T08:09:05.070Z,8.70
2019-02-17T08:10:04.979Z,8.73
2019-02-17T08:11:04.903Z,8.71
2019-02-17T08:12:04.848Z,8.86
2019-02-17T08:13:04.775Z,8.79
2019-02-17T08:14:04.683Z,8.81
2019-02-17T08:15:04.623Z,9.01
2019-02-17T08:16:04.533Z,8.94
2019-02-17T08:17:04.464Z,8.99
2019-02-17T08:18:04.398Z,8.94
2019-02-17T08:19:04.324Z,8.99
2019-02-17T08:20:04.249Z,8.96
2019-02-17T08:21:04.179Z,8.94
2019-02-17T08:22:04.088Z,9.02
2019-02-17T08:23:04.011Z,9.02
2019-02-17T08:24:03.943Z,9.01
2019-02-17T08:25:03.869Z,9.10
2019-02-17T08:26:03.825Z,9.13
2019-02-17T08:27:04.691Z,9.13
2019-02-17T08:28:03.641Z,9.18
2019-02-17T08:29:03.570Z,9.23
2019-02-17T08:30:03.547Z,9.33
2019-02-17T08:31:03.432Z,9.38
2019-02-17T08:32:03.391Z,9.40
2019-02-17T08:33:03.288Z,9.60
2019-02-17T08:34:03.202Z,9.60
2019-02-17T08:35:03.133Z,9.60
2019-02-17T08:36:03.070Z,9.57
2019-02-17T08:37:02.987Z,9.58
2019-02-17T08:38:03.568Z,9.48
2019-02-17T08:39:02.833Z,9.56
2019-02-17T08:40:02.758Z,9.31
2019-02-17T08:41:02.679Z,9.31
2019-02-17T08:42:02.622Z,9.38
2019-02-17T08:43:02.546Z,9.29
2019-02-17T08:44:02.465Z,9.35
2019-02-17T08:45:02.386Z,9.46
2019-02-17T08:46:02.332Z,9.50
2019-02-17T08:47:02.253Z,9.43
2019-02-17T08:48:02.180Z,9.57
2019-02-17T08:49:02.108Z,9.58
2019-02-17T08:50:02.015Z,9.56
2019-02-17T08:51:01.947Z,9.51
2019-02-17T08:52:01.870Z,9.64
2019-02-17T08:53:01.803Z,9.61
2019-02-17T08:54:01.737Z,9.57
2019-02-17T08:55:01.665Z,9.64
2019-02-17T08:56:01.591Z,9.65
2019-02-17T08:57:01.517Z,9.61
2019-02-17T08:58:01.429Z,9.57
2019-02-17T08:59:01.357Z,9.71
2019-02-17T09:00:01.343Z,9.72
2019-02-17T09:01:01.226Z,9.79
2019-02-17T09:02:05.889Z,9.84
2019-02-17T09:03:01.065Z,9.84
2019-02-17T09:04:00.989Z,10.04
2019-02-17T09:05:00.920Z,10.09
2019-02-17T09:06:00.858Z,10.09
2019-02-17T09:07:00.786Z,10.18
2019-02-17T09:08:00.713Z,10.17
2019-02-17T09:09:00.642Z,10.18
2019-02-17T09:10:00.555Z,10.22
2019-02-17T09:11:00.480Z,10.25
2019-02-17T09:12:00.413Z,10.26
2019-02-17T09:13:00.364Z,10.29
2019-02-17T09:14:00.277Z,10.27
2019-02-17T09:15:00.306Z,10.27
2019-02-17T09:16:00.121Z,10.32
2019-02-17T09:17:00.043Z,10.40
2019-02-17T09:17:59.987Z,10.40
2019-02-17T09:18:59.910Z,10.48
2019-02-17T09:19:59.837Z,10.51
2019-02-17T09:20:59.771Z,10.56
2019-02-17T09:21:59.694Z,10.67
2019-02-17T09:22:59.611Z,10.66
2019-02-17T09:23:59.533Z,10.70
2019-02-17T09:24:59.464Z,10.67
2019-02-17T09:25:59.398Z,10.81
2019-02-17T09:26:59.351Z,10.78
2019-02-17T09:27:59.261Z,10.86
2019-02-17T09:28:59.187Z,10.96
2019-02-17T09:29:59.095Z,10.91
2019-02-17T09:30:59.027Z,10.91
2019-02-17T09:31:59.536Z,10.92
2019-02-17T09:32:58.898Z,10.92
2019-02-17T09:33:58.811Z,10.88
2019-02-17T09:34:58.737Z,10.91
2019-02-17T09:35:58.683Z,10.97
2019-02-17T09:36:58.595Z,10.92
2019-02-17T09:37:58.541Z,11.04
2019-02-17T09:38:58.462Z,10.94
2019-02-17T09:39:58.375Z,10.92
2019-02-17T09:40:58.305Z,10.71
2019-02-17T09:41:58.246Z,10.56
2019-02-17T09:42:58.174Z,10.61
2019-02-17T09:43:58.094Z,10.70
2019-02-17T09:44:58.026Z,10.68
2019-02-17T09:45:57.941Z,10.70
2019-02-17T09:46:57.869Z,10.70
2019-02-17T09:47:57.808Z,10.81
2019-02-17T09:48:57.747Z,10.84
2019-02-17T09:49:57.653Z,10.68
2019-02-17T09:50:57.579Z,10.74
2019-02-17T09:51:57.547Z,10.64
2019-02-17T09:52:57.440Z,10.63
2019-02-17T09:53:57.376Z,10.52
2019-02-17T09:54:57.303Z,10.61
2019-02-17T09:55:57.228Z,10.82
2019-02-17T09:56:57.154Z,10.86
2019-02-17T09:57:57.071Z,10.86
2019-02-17T09:58:57.039Z,10.91
2019-02-17T09:59:56.931Z,10.86
2019-02-17T10:00:56.858Z,10.89
2019-02-17T10:01:56.799Z,11.07
2019-02-17T10:02:56.727Z,11.14
2019-02-17T10:03:56.641Z,11.29
2019-02-17T10:04:56.569Z,11.25
2019-02-17T10:05:56.507Z,11.35
2019-02-17T10:06:56.506Z,11.43
2019-02-17T10:07:56.363Z,11.40
2019-02-17T10:08:56.298Z,11.47
2019-02-17T10:09:56.208Z,11.44
2019-02-17T10:10:56.138Z,11.49
2019-02-17T10:11:56.074Z,11.58
2019-02-17T10:12:56.007Z,11.57
2019-02-17T10:13:55.919Z,11.54
2019-02-17T10:14:55.851Z,11.43
2019-02-17T10:15:55.779Z,11.49
2019-02-17T10:16:55.707Z,11.40
2019-02-17T10:17:55.678Z,11.46
2019-02-17T10:18:55.574Z,11.27
2019-02-17T10:19:55.491Z,11.25
2019-02-17T10:20:55.419Z,11.22
2019-02-17T10:21:55.356Z,11.21
2019-02-17T10:22:55.285Z,11.18
2019-02-17T10:23:55.215Z,11.24
2019-02-17T10:24:55.142Z,11.22
2019-02-17T10:25:56.554Z,11.17
2019-02-17T10:26:54.981Z,11.17
2019-02-17T10:27:54.911Z,11.11
2019-02-17T10:28:54.841Z,11.21
2019-02-17T10:29:54.788Z,11.21
2019-02-17T10:30:54.714Z,11.29
2019-02-17T10:31:54.638Z,11.29
2019-02-17T10:32:54.567Z,11.36
2019-02-17T10:33:54.479Z,11.42
2019-02-17T10:34:54.412Z,11.37
2019-02-17T10:35:54.354Z,11.36
2019-02-17T10:36:54.274Z,11.51
2019-02-17T10:37:54.217Z,11.60
2019-02-17T10:38:54.125Z,11.57
2019-02-17T10:39:54.051Z,11.67
2019-02-17T10:40:53.977Z,11.76
2019-02-17T10:41:53.915Z,11.78
2019-02-17T10:42:53.845Z,11.73
2019-02-17T10:43:53.761Z,11.61
2019-02-17T10:44:53.689Z,11.54
2019-02-17T10:45:53.637Z,11.52
2019-02-17T10:46:53.550Z,11.57
2019-02-17T10:47:53.496Z,11.43
2019-02-17T10:48:53.411Z,11.40
2019-02-17T10:49:53.327Z,11.49
2019-02-17T10:50:53.258Z,11.52
2019-02-17T10:51:53.195Z,11.61
2019-02-17T10:52:53.121Z,11.72
2019-02-17T10:53:53.036Z,11.78
2019-02-17T10:54:52.967Z,11.76
2019-02-17T10:55:52.891Z,11.78
2019-02-17T10:56:52.816Z,11.76
2019-02-17T10:57:52.767Z,11.67
2019-02-17T10:58:52.690Z,11.72
2019-02-17T10:59:52.628Z,11.64
2019-02-17T11:00:52.547Z,11.80
2019-02-17T11:01:52.458Z,11.82
2019-02-17T11:02:52.385Z,11.76
2019-02-17T11:03:52.318Z,11.91
2019-02-17T11:04:52.243Z,11.86
2019-02-17T11:05:52.178Z,12.01
2019-02-17T11:06:52.092Z,12.01
2019-02-17T11:07:52.021Z,11.98
2019-02-17T11:08:51.970Z,12.01
2019-02-17T11:09:51.890Z,11.96
2019-02-17T11:10:51.819Z,11.99
2019-02-17T11:11:51.750Z,12.04
2019-02-17T11:12:51.662Z,12.05
2019-02-17T11:13:51.589Z,12.10
2019-02-17T11:14:51.521Z,12.09
2019-02-17T11:15:51.443Z,12.05
2019-02-17T11:16:51.393Z,12.10
2019-02-17T11:17:51.312Z,12.07
2019-02-17T11:18:51.969Z,12.14
2019-02-17T11:19:51.166Z,12.13
2019-02-17T11:20:51.087Z,12.13
2019-02-17T11:21:51.023Z,12.04
2019-02-17T11:22:50.957Z,12.04
2019-02-17T11:23:50.876Z,12.10
2019-02-17T11:24:50.792Z,12.05
2019-02-17T11:25:50.721Z,12.05
2019-02-17T11:26:51.026Z,12.05
2019-02-17T11:27:50.575Z,12.05
2019-02-17T11:28:50.544Z,12.12
2019-02-17T11:29:50.445Z,12.14
2019-02-17T11:30:50.365Z,12.19
2019-02-17T11:31:50.296Z,12.20
2019-02-17T11:32:57.717Z,12.14
2019-02-17T11:33:50.213Z,12.19
2019-02-17T11:34:50.064Z,12.28
2019-02-17T11:35:50.003Z,12.27
2019-02-17T11:36:49.928Z,12.23
2019-02-17T11:37:49.859Z,12.29
2019-02-17T11:38:49.769Z,12.34
2019-02-17T11:39:49.697Z,12.35
2019-02-17T11:40:49.638Z,12.37
2019-02-17T11:41:49.572Z,12.41
2019-02-17T11:42:49.498Z,12.42
2019-02-17T11:43:49.424Z,12.49
2019-02-17T11:44:49.346Z,12.59
2019-02-17T11:45:49.269Z,12.54
2019-02-17T11:46:49.208Z,12.57
2019-02-17T11:47:49.137Z,12.56
2019-02-17T11:48:49.055Z,12.57
2019-02-17T11:49:48.989Z,12.54
2019-02-17T11:50:48.923Z,12.54
2019-02-17T11:51:48.835Z,12.62
2019-02-17T11:52:48.773Z,12.56
2019-02-17T11:53:48.703Z,12.64
2019-02-17T11:54:48.613Z,12.64
2019-02-17T11:55:48.547Z,12.65
2019-02-17T11:56:48.797Z,12.67
2019-02-17T11:57:48.402Z,12.75
2019-02-17T11:58:48.335Z,12.77
2019-02-17T11:59:48.283Z,12.79
2019-02-17T12:00:48.180Z,12.87
2019-02-17T12:01:48.106Z,12.89
2019-02-17T12:02:48.058Z,12.93
2019-02-17T12:03:48.030Z,12.96
2019-02-17T12:04:48.023Z,12.95
2019-02-17T12:05:47.827Z,13.07
2019-02-17T12:06:47.761Z,13.04
2019-02-17T12:07:47.680Z,13.17
2019-02-17T12:08:47.602Z,13.22
2019-02-17T12:09:47.524Z,13.28
2019-02-17T12:10:47.471Z,13.20
2019-02-17T12:11:47.398Z,13.28
2019-02-17T12:12:47.332Z,13.28
2019-02-17T12:13:47.242Z,13.22
2019-02-17T12:14:47.170Z,13.29
2019-02-17T12:15:47.097Z,13.29
2019-02-17T12:16:47.044Z,13.15
2019-02-17T12:17:46.961Z,13.25
2019-02-17T12:18:46.994Z,13.14
2019-02-17T12:19:46.822Z,13.28
2019-02-17T12:20:46.741Z,13.29
2019-02-17T12:21:46.685Z,13.38
2019-02-17T12:22:46.597Z,13.33
2019-02-17T12:23:46.531Z,13.33
2019-02-17T12:24:46.466Z,13.30
2019-02-17T12:25:46.388Z,13.28
2019-02-17T12:26:46.307Z,13.38
2019-02-17T12:27:46.238Z,13.30
2019-02-17T12:28:46.177Z,13.33
2019-02-17T12:29:46.111Z,13.36
2019-02-17T12:30:46.035Z,13.42
2019-02-17T12:31:45.962Z,13.44
2019-02-17T12:32:45.877Z,13.48
2019-02-17T12:33:45.809Z,13.49
2019-02-17T12:34:45.797Z,13.55
2019-02-17T12:35:45.666Z,13.60
2019-02-17T12:36:45.605Z,13.59
2019-02-17T12:37:47.341Z,13.62
2019-02-17T12:38:45.463Z,13.64
2019-02-17T12:39:45.398Z,13.67
2019-02-17T12:40:45.302Z,13.60
2019-02-17T12:41:45.232Z,13.67
2019-02-17T12:42:45.172Z,13.66
2019-02-17T12:43:45.100Z,13.69
2019-02-17T12:44:45.031Z,13.77
2019-02-17T12:45:44.945Z,13.73
2019-02-17T12:46:44.875Z,13.78
2019-02-17T12:47:44.798Z,13.66
2019-02-17T12:48:44.744Z,13.81
2019-02-17T12:49:44.671Z,13.87
2019-02-17T12:50:44.585Z,13.75
2019-02-17T12:51:44.518Z,13.91
2019-02-17T12:52:46.991Z,13.92
2019-02-17T12:53:44.378Z,13.97
2019-02-17T12:54:44.308Z,14.00
2019-02-17T12:55:44.246Z,14.06
2019-02-17T12:56:44.153Z,14.09
2019-02-17T12:57:44.079Z,14.02
2019-02-17T12:58:44.020Z,14.04
2019-02-17T12:59:43.952Z,14.02
2019-02-17T13:00:43.869Z,14.15
2019-02-17T13:01:45.389Z,14.15
2019-02-17T13:02:43.728Z,14.14
2019-02-17T13:03:43.652Z,14.17
2019-02-17T13:04:43.592Z,14.18
2019-02-17T13:05:43.518Z,14.24
2019-02-17T13:06:43.449Z,14.21